sensor_id;sensor_type;location;lat;lon;timestamp;P1;durP1;ratioP1;P2;durP2;ratioP2
50851;SDS011;43953;45.508;-122.806;2024-02-16T00:00:07;0.17;;;0.17;;
50851;SDS011;43953;45.508;-122.806;2024-02-16T00:00:42;0.63;;;0.20;;
50851;SDS011;43953;45.508;-122.806;2024-02-16T00:01:15;0.10;;;0.10;;
50851;SDS011;43953;45.508;-122.806;2024-02-16T00:01:46;0.30;;;0.20;;
50851;SDS011;43953;45.508;-122.806;2024-02-16T00:02:18;0.15;;;0.15;;
50851;SDS011;43953;45.508;-122.806;2024-02-16T00:02:50;0.75;;;0.28;;
50851;SDS011;43953;45.508;-122.806;2024-02-16T00:03:22;0.52;;;0.20;;
50851;SDS011;43953;45.508;-122.806;2024-02-16T00:03:53;1.02;;;0.20;;
50851;SDS011;43953;45.508;-122.806;2024-02-16T00:04:25;0.50;;;0.20;;
50851;SDS011;43953;45.508;-122.806;2024-02-16T00:04:57;0.43;;;0.20;;
50851;SDS011;43953;45.508;-122.806;2024-02-16T00:05:28;0.30;;;0.25;;
50851;SDS011;43953;45.508;-122.806;2024-02-16T00:06:00;0.85;;;0.30;;
50851;SDS011;43953;45.508;-122.806;2024-02-16T00:06:31;1.23;;;0.20;;
50851;SDS011;43953;45.508;-122.806;2024-02-16T00:07:04;1.00;;;0.30;;
50851;SDS011;43953;45.508;-122.806;2024-02-16T00:07:36;3.30;;;0.30;;
50851;SDS011;43953;45.508;-122.806;2024-02-16T00:08:08;0.30;;;0.20;;
50851;SDS011;43953;45.508;-122.806;2024-02-16T00:08:40;1.92;;;0.20;;
50851;SDS011;43953;45.508;-122.806;2024-02-16T00:09:12;1.35;;;0.20;;
50851;SDS011;43953;45.508;-122.806;2024-02-16T00:09:43;0.75;;;0.28;;
50851;SDS011;43953;45.508;-122.806;2024-02-16T00:10:15;1.00;;;0.22;;
50851;SDS011;43953;45.508;-122.806;2024-02-16T00:10:49;0.50;;;0.20;;
50851;SDS011;43953;45.508;-122.806;2024-02-16T00:11:21;0.55;;;0.20;;
50851;SDS011;43953;45.508;-122.806;2024-02-16T00:11:54;2.08;;;0.28;;
50851;SDS011;43953;45.508;-122.806;2024-02-16T00:12:25;0.40;;;0.20;;
50851;SDS011;43953;45.508;-122.806;2024-02-16T00:12:57;0.15;;;0.10;;
50851;SDS011;43953;45.508;-122.806;2024-02-16T00:13:29;0.73;;;0.30;;
50851;SDS011;43953;45.508;-122.806;2024-02-16T00:14:00;0.63;;;0.30;;
50851;SDS011;43953;45.508;-122.806;2024-02-16T00:14:33;1.50;;;0.30;;
50851;SDS011;43953;45.508;-122.806;2024-02-16T00:15:05;0.50;;;0.20;;
50851;SDS011;43953;45.508;-122.806;2024-02-16T00:15:37;2.17;;;0.20;;
50851;SDS011;43953;45.508;-122.806;2024-02-16T00:16:11;0.30;;;0.20;;
50851;SDS011;43953;45.508;-122.806;2024-02-16T00:16:43;1.25;;;0.30;;
50851;SDS011;43953;45.508;-122.806;2024-02-16T00:17:15;1.00;;;0.20;;
50851;SDS011;43953;45.508;-122.806;2024-02-16T00:17:46;0.55;;;0.20;;
50851;SDS011;43953;45.508;-122.806;2024-02-16T00:18:19;1.38;;;0.20;;
50851;SDS011;43953;45.508;-122.806;2024-02-16T00:18:50;2.88;;;0.35;;
50851;SDS011;43953;45.508;-122.806;2024-02-16T00:19:22;0.45;;;0.20;;
50851;SDS011;43953;45.508;-122.806;2024-02-16T00:19:57;1.10;;;0.20;;
50851;SDS011;43953;45.508;-122.806;2024-02-16T00:20:28;0.43;;;0.30;;
50851;SDS011;43953;45.508;-122.806;2024-02-16T00:21:02;1.52;;;0.32;;
50851;SDS011;43953;45.508;-122.806;2024-02-16T00:21:34;1.02;;;0.20;;
50851;SDS011;43953;45.508;-122.806;2024-02-16T00:22:05;0.63;;;0.40;;
50851;SDS011;43953;45.508;-122.806;2024-02-16T00:22:38;6.05;;;0.52;;
50851;SDS011;43953;45.508;-122.806;2024-02-16T00:23:09;1.55;;;0.20;;
50851;SDS011;43953;45.508;-122.806;2024-02-16T00:23:41;0.88;;;0.30;;
50851;SDS011;43953;45.508;-122.806;2024-02-16T00:24:13;4.82;;;0.47;;
50851;SDS011;43953;45.508;-122.806;2024-02-16T00:24:45;0.75;;;0.30;;
50851;SDS011;43953;45.508;-122.806;2024-02-16T00:25:16;0.52;;;0.30;;
50851;SDS011;43953;45.508;-122.806;2024-02-16T00:25:48;3.28;;;0.40;;
50851;SDS011;43953;45.508;-122.806;2024-02-16T00:26:20;1.20;;;0.20;;
50851;SDS011;43953;45.508;-122.806;2024-02-16T00:26:54;2.00;;;0.30;;
50851;SDS011;43953;45.508;-122.806;2024-02-16T00:27:25;3.33;;;0.30;;
50851;SDS011;43953;45.508;-122.806;2024-02-16T00:27:57;1.58;;;0.22;;
50851;SDS011;43953;45.508;-122.806;2024-02-16T00:28:30;1.33;;;0.68;;
50851;SDS011;43953;45.508;-122.806;2024-02-16T00:29:01;1.80;;;0.30;;
50851;SDS011;43953;45.508;-122.806;2024-02-16T00:29:33;0.50;;;0.20;;
50851;SDS011;43953;45.508;-122.806;2024-02-16T00:30:05;2.83;;;0.30;;
50851;SDS011;43953;45.508;-122.806;2024-02-16T00:30:37;0.77;;;0.20;;
50851;SDS011;43953;45.508;-122.806;2024-02-16T00:31:09;1.60;;;0.20;;
50851;SDS011;43953;45.508;-122.806;2024-02-16T00:31:41;0.57;;;0.20;;
50851;SDS011;43953;45.508;-122.806;2024-02-16T00:32:14;1.65;;;0.22;;
50851;SDS011;43953;45.508;-122.806;2024-02-16T00:32:46;1.33;;;0.30;;
50851;SDS011;43953;45.508;-122.806;2024-02-16T00:33:18;1.85;;;0.40;;
50851;SDS011;43953;45.508;-122.806;2024-02-16T00:33:50;0.90;;;0.30;;
50851;SDS011;43953;45.508;-122.806;2024-02-16T00:34:21;1.00;;;0.35;;
50851;SDS011;43953;45.508;-122.806;2024-02-16T00:34:53;1.08;;;0.30;;
50851;SDS011;43953;45.508;-122.806;2024-02-16T00:35:25;1.30;;;0.20;;
50851;SDS011;43953;45.508;-122.806;2024-02-16T00:35:56;1.17;;;0.30;;
50851;SDS011;43953;45.508;-122.806;2024-02-16T00:36:28;2.05;;;0.30;;
50851;SDS011;43953;45.508;-122.806;2024-02-16T00:37:01;1.42;;;0.40;;
50851;SDS011;43953;45.508;-122.806;2024-02-16T00:37:40;3.27;;;0.30;;
50851;SDS011;43953;45.508;-122.806;2024-02-16T00:38:11;2.42;;;0.40;;
50851;SDS011;43953;45.508;-122.806;2024-02-16T00:38:43;3.17;;;0.40;;
50851;SDS011;43953;45.508;-122.806;2024-02-16T00:39:15;1.52;;;0.40;;
50851;SDS011;43953;45.508;-122.806;2024-02-16T00:39:46;2.17;;;0.32;;
50851;SDS011;43953;45.508;-122.806;2024-02-16T00:40:18;2.83;;;0.40;;
50851;SDS011;43953;45.508;-122.806;2024-02-16T00:40:50;9.13;;;0.70;;
50851;SDS011;43953;45.508;-122.806;2024-02-16T00:41:23;2.45;;;0.38;;
50851;SDS011;43953;45.508;-122.806;2024-02-16T00:41:54;3.35;;;0.30;;
50851;SDS011;43953;45.508;-122.806;2024-02-16T00:42:26;0.93;;;0.40;;
50851;SDS011;43953;45.508;-122.806;2024-02-16T00:42:59;3.53;;;0.28;;
50851;SDS011;43953;45.508;-122.806;2024-02-16T00:43:30;1.60;;;0.52;;
50851;SDS011;43953;45.508;-122.806;2024-02-16T00:44:02;0.57;;;0.32;;
50851;SDS011;43953;45.508;-122.806;2024-02-16T00:44:34;1.10;;;0.20;;
50851;SDS011;43953;45.508;-122.806;2024-02-16T00:45:06;0.95;;;0.30;;
50851;SDS011;43953;45.508;-122.806;2024-02-16T00:45:39;3.50;;;0.22;;
50851;SDS011;43953;45.508;-122.806;2024-02-16T00:46:14;1.55;;;0.32;;
50851;SDS011;43953;45.508;-122.806;2024-02-16T00:46:46;2.40;;;0.30;;
50851;SDS011;43953;45.508;-122.806;2024-02-16T00:47:18;2.20;;;0.38;;
50851;SDS011;43953;45.508;-122.806;2024-02-16T00:47:50;0.73;;;0.20;;
50851;SDS011;43953;45.508;-122.806;2024-02-16T00:48:22;1.13;;;0.40;;
50851;SDS011;43953;45.508;-122.806;2024-02-16T00:48:53;0.95;;;0.30;;
50851;SDS011;43953;45.508;-122.806;2024-02-16T00:49:25;0.30;;;0.20;;
50851;SDS011;43953;45.508;-122.806;2024-02-16T00:49:58;3.63;;;0.30;;
50851;SDS011;43953;45.508;-122.806;2024-02-16T00:50:30;3.05;;;0.30;;
50851;SDS011;43953;45.508;-122.806;2024-02-16T00:51:01;1.27;;;0.38;;
50851;SDS011;43953;45.508;-122.806;2024-02-16T00:51:34;1.60;;;0.30;;
50851;SDS011;43953;45.508;-122.806;2024-02-16T00:52:06;1.48;;;0.40;;
50851;SDS011;43953;45.508;-122.806;2024-02-16T00:52:38;1.55;;;0.30;;
50851;SDS011;43953;45.508;-122.806;2024-02-16T00:53:10;0.55;;;0.30;;
50851;SDS011;43953;45.508;-122.806;2024-02-16T00:53:42;0.20;;;0.20;;
50851;SDS011;43953;45.508;-122.806;2024-02-16T00:54:14;0.85;;;0.30;;
50851;SDS011;43953;45.508;-122.806;2024-02-16T00:54:46;1.80;;;0.40;;
50851;SDS011;43953;45.508;-122.806;2024-02-16T00:55:18;0.80;;;0.22;;
50851;SDS011;43953;45.508;-122.806;2024-02-16T00:55:50;1.98;;;0.30;;
50851;SDS011;43953;45.508;-122.806;2024-02-16T00:56:21;0.20;;;0.20;;
50851;SDS011;43953;45.508;-122.806;2024-02-16T00:56:53;1.63;;;0.25;;
50851;SDS011;43953;45.508;-122.806;2024-02-16T00:57:25;1.80;;;0.25;;
50851;SDS011;43953;45.508;-122.806;2024-02-16T00:57:57;1.98;;;0.28;;
50851;SDS011;43953;45.508;-122.806;2024-02-16T00:58:29;1.08;;;0.30;;
50851;SDS011;43953;45.508;-122.806;2024-02-16T00:59:00;0.47;;;0.20;;
50851;SDS011;43953;45.508;-122.806;2024-02-16T00:59:32;1.10;;;0.30;;
50851;SDS011;43953;45.508;-122.806;2024-02-16T01:00:04;0.75;;;0.28;;
50851;SDS011;43953;45.508;-122.806;2024-02-16T01:00:36;0.88;;;0.55;;
50851;SDS011;43953;45.508;-122.806;2024-02-16T01:01:08;0.95;;;0.20;;
50851;SDS011;43953;45.508;-122.806;2024-02-16T01:01:42;1.88;;;0.30;;
50851;SDS011;43953;45.508;-122.806;2024-02-16T01:02:13;2.05;;;0.25;;
50851;SDS011;43953;45.508;-122.806;2024-02-16T01:02:47;5.38;;;0.50;;
50851;SDS011;43953;45.508;-122.806;2024-02-16T01:03:19;4.22;;;0.55;;
50851;SDS011;43953;45.508;-122.806;2024-02-16T01:03:51;3.55;;;0.43;;
50851;SDS011;43953;45.508;-122.806;2024-02-16T01:04:25;1.42;;;0.40;;
50851;SDS011;43953;45.508;-122.806;2024-02-16T01:04:57;2.55;;;0.60;;
50851;SDS011;43953;45.508;-122.806;2024-02-16T01:05:32;5.00;;;0.50;;
50851;SDS011;43953;45.508;-122.806;2024-02-16T01:06:04;1.75;;;0.28;;
50851;SDS011;43953;45.508;-122.806;2024-02-16T01:06:37;5.05;;;0.43;;
50851;SDS011;43953;45.508;-122.806;2024-02-16T01:07:09;1.85;;;0.40;;
50851;SDS011;43953;45.508;-122.806;2024-02-16T01:07:41;0.82;;;0.32;;
50851;SDS011;43953;45.508;-122.806;2024-02-16T01:08:13;2.63;;;0.55;;
50851;SDS011;43953;45.508;-122.806;2024-02-16T01:08:44;5.20;;;0.65;;
50851;SDS011;43953;45.508;-122.806;2024-02-16T01:09:17;3.55;;;0.40;;
50851;SDS011;43953;45.508;-122.806;2024-02-16T01:09:49;1.95;;;0.50;;
50851;SDS011;43953;45.508;-122.806;2024-02-16T01:10:20;3.22;;;0.85;;
50851;SDS011;43953;45.508;-122.806;2024-02-16T01:10:52;3.85;;;0.52;;
50851;SDS011;43953;45.508;-122.806;2024-02-16T01:11:24;5.43;;;0.73;;
50851;SDS011;43953;45.508;-122.806;2024-02-16T01:11:56;4.72;;;0.70;;
50851;SDS011;43953;45.508;-122.806;2024-02-16T01:12:28;2.20;;;0.38;;
50851;SDS011;43953;45.508;-122.806;2024-02-16T01:13:02;1.83;;;0.50;;
50851;SDS011;43953;45.508;-122.806;2024-02-16T01:13:34;3.63;;;0.45;;
50851;SDS011;43953;45.508;-122.806;2024-02-16T01:14:06;1.33;;;0.50;;
50851;SDS011;43953;45.508;-122.806;2024-02-16T01:14:38;1.25;;;0.38;;
50851;SDS011;43953;45.508;-122.806;2024-02-16T01:15:09;5.03;;;0.88;;
50851;SDS011;43953;45.508;-122.806;2024-02-16T01:15:42;3.30;;;0.50;;
50851;SDS011;43953;45.508;-122.806;2024-02-16T01:16:14;5.07;;;0.68;;
50851;SDS011;43953;45.508;-122.806;2024-02-16T01:16:48;8.75;;;0.73;;
50851;SDS011;43953;45.508;-122.806;2024-02-16T01:17:20;4.95;;;0.80;;
50851;SDS011;43953;45.508;-122.806;2024-02-16T01:17:51;5.20;;;0.73;;
50851;SDS011;43953;45.508;-122.806;2024-02-16T01:18:23;2.53;;;0.50;;
50851;SDS011;43953;45.508;-122.806;2024-02-16T01:18:55;4.15;;;0.57;;
50851;SDS011;43953;45.508;-122.806;2024-02-16T01:19:27;0.90;;;0.20;;
50851;SDS011;43953;45.508;-122.806;2024-02-16T01:19:59;3.63;;;0.50;;
50851;SDS011;43953;45.508;-122.806;2024-02-16T01:20:30;1.08;;;0.20;;
50851;SDS011;43953;45.508;-122.806;2024-02-16T01:21:03;3.45;;;0.50;;
50851;SDS011;43953;45.508;-122.806;2024-02-16T01:21:35;0.80;;;0.30;;
50851;SDS011;43953;45.508;-122.806;2024-02-16T01:22:06;2.90;;;0.30;;
50851;SDS011;43953;45.508;-122.806;2024-02-16T01:22:39;0.95;;;0.40;;
50851;SDS011;43953;45.508;-122.806;2024-02-16T01:23:11;2.72;;;0.50;;
50851;SDS011;43953;45.508;-122.806;2024-02-16T01:23:42;3.50;;;0.40;;
50851;SDS011;43953;45.508;-122.806;2024-02-16T01:24:15;1.08;;;0.40;;
50851;SDS011;43953;45.508;-122.806;2024-02-16T01:24:47;1.65;;;0.50;;
50851;SDS011;43953;45.508;-122.806;2024-02-16T01:25:19;2.38;;;0.38;;
50851;SDS011;43953;45.508;-122.806;2024-02-16T01:25:51;1.27;;;0.50;;
50851;SDS011;43953;45.508;-122.806;2024-02-16T01:26:22;3.03;;;0.35;;
50851;SDS011;43953;45.508;-122.806;2024-02-16T01:26:54;1.55;;;0.35;;
50851;SDS011;43953;45.508;-122.806;2024-02-16T01:27:26;1.55;;;0.40;;
50851;SDS011;43953;45.508;-122.806;2024-02-16T01:27:58;0.88;;;0.60;;
50851;SDS011;43953;45.508;-122.806;2024-02-16T01:28:30;0.80;;;0.30;;
50851;SDS011;43953;45.508;-122.806;2024-02-16T01:29:02;0.38;;;0.20;;
50851;SDS011;43953;45.508;-122.806;2024-02-16T01:29:33;2.22;;;0.45;;
50851;SDS011;43953;45.508;-122.806;2024-02-16T01:30:05;3.33;;;0.60;;
50851;SDS011;43953;45.508;-122.806;2024-02-16T01:30:38;2.97;;;0.30;;
50851;SDS011;43953;45.508;-122.806;2024-02-16T01:31:10;2.45;;;0.50;;
50851;SDS011;43953;45.508;-122.806;2024-02-16T01:31:42;2.30;;;0.40;;
50851;SDS011;43953;45.508;-122.806;2024-02-16T01:32:14;1.63;;;0.40;;
50851;SDS011;43953;45.508;-122.806;2024-02-16T01:32:46;1.13;;;0.32;;
50851;SDS011;43953;45.508;-122.806;2024-02-16T01:33:19;2.90;;;0.50;;
50851;SDS011;43953;45.508;-122.806;2024-02-16T01:33:50;0.95;;;0.30;;
50851;SDS011;43953;45.508;-122.806;2024-02-16T01:34:23;2.00;;;0.30;;
50851;SDS011;43953;45.508;-122.806;2024-02-16T01:34:55;1.50;;;0.40;;
50851;SDS011;43953;45.508;-122.806;2024-02-16T01:35:26;3.63;;;0.40;;
50851;SDS011;43953;45.508;-122.806;2024-02-16T01:35:58;2.63;;;0.50;;
50851;SDS011;43953;45.508;-122.806;2024-02-16T01:36:30;2.75;;;0.30;;
50851;SDS011;43953;45.508;-122.806;2024-02-16T01:37:01;2.17;;;0.35;;
50851;SDS011;43953;45.508;-122.806;2024-02-16T01:37:33;0.75;;;0.45;;
50851;SDS011;43953;45.508;-122.806;2024-02-16T01:38:05;2.78;;;0.30;;
50851;SDS011;43953;45.508;-122.806;2024-02-16T01:38:36;1.30;;;0.30;;
50851;SDS011;43953;45.508;-122.806;2024-02-16T01:39:08;3.10;;;0.40;;
50851;SDS011;43953;45.508;-122.806;2024-02-16T01:39:40;1.42;;;0.30;;
50851;SDS011;43953;45.508;-122.806;2024-02-16T01:40:13;1.15;;;0.40;;
50851;SDS011;43953;45.508;-122.806;2024-02-16T01:40:45;4.25;;;0.57;;
50851;SDS011;43953;45.508;-122.806;2024-02-16T01:41:16;0.75;;;0.40;;
50851;SDS011;43953;45.508;-122.806;2024-02-16T01:41:48;4.78;;;0.63;;
50851;SDS011;43953;45.508;-122.806;2024-02-16T01:42:20;2.00;;;0.50;;
50851;SDS011;43953;45.508;-122.806;2024-02-16T01:42:52;1.17;;;0.40;;
50851;SDS011;43953;45.508;-122.806;2024-02-16T01:43:24;5.22;;;0.50;;
50851;SDS011;43953;45.508;-122.806;2024-02-16T01:43:56;1.77;;;0.40;;
50851;SDS011;43953;45.508;-122.806;2024-02-16T01:44:28;3.60;;;0.50;;
50851;SDS011;43953;45.508;-122.806;2024-02-16T01:45:00;3.72;;;1.00;;
50851;SDS011;43953;45.508;-122.806;2024-02-16T01:45:31;2.15;;;0.40;;
50851;SDS011;43953;45.508;-122.806;2024-02-16T01:46:03;2.95;;;0.40;;
50851;SDS011;43953;45.508;-122.806;2024-02-16T01:46:36;2.78;;;0.45;;
50851;SDS011;43953;45.508;-122.806;2024-02-16T01:47:07;5.00;;;0.50;;
50851;SDS011;43953;45.508;-122.806;2024-02-16T01:47:40;5.45;;;0.65;;
50851;SDS011;43953;45.508;-122.806;2024-02-16T01:48:14;2.13;;;0.55;;
50851;SDS011;43953;45.508;-122.806;2024-02-16T01:48:47;2.90;;;0.55;;
50851;SDS011;43953;45.508;-122.806;2024-02-16T01:49:21;5.65;;;0.80;;
50851;SDS011;43953;45.508;-122.806;2024-02-16T01:49:52;11.13;;;1.52;;
50851;SDS011;43953;45.508;-122.806;2024-02-16T01:50:24;2.83;;;0.47;;
50851;SDS011;43953;45.508;-122.806;2024-02-16T01:50:56;5.13;;;0.88;;
50851;SDS011;43953;45.508;-122.806;2024-02-16T01:51:30;5.07;;;0.95;;
50851;SDS011;43953;45.508;-122.806;2024-02-16T01:52:04;4.95;;;0.80;;
50851;SDS011;43953;45.508;-122.806;2024-02-16T01:52:36;6.28;;;0.90;;
50851;SDS011;43953;45.508;-122.806;2024-02-16T01:53:08;5.43;;;0.60;;
50851;SDS011;43953;45.508;-122.806;2024-02-16T01:53:40;5.05;;;0.60;;
50851;SDS011;43953;45.508;-122.806;2024-02-16T01:54:12;4.03;;;0.50;;
50851;SDS011;43953;45.508;-122.806;2024-02-16T01:54:44;2.33;;;0.60;;
50851;SDS011;43953;45.508;-122.806;2024-02-16T01:55:16;2.88;;;0.50;;
50851;SDS011;43953;45.508;-122.806;2024-02-16T01:55:48;2.75;;;0.50;;
50851;SDS011;43953;45.508;-122.806;2024-02-16T01:56:21;3.60;;;0.57;;
50851;SDS011;43953;45.508;-122.806;2024-02-16T01:56:52;2.53;;;0.40;;
50851;SDS011;43953;45.508;-122.806;2024-02-16T01:57:25;1.98;;;0.68;;
50851;SDS011;43953;45.508;-122.806;2024-02-16T01:57:57;2.25;;;0.60;;
50851;SDS011;43953;45.508;-122.806;2024-02-16T01:58:30;4.03;;;0.60;;
50851;SDS011;43953;45.508;-122.806;2024-02-16T01:59:02;2.05;;;0.40;;
50851;SDS011;43953;45.508;-122.806;2024-02-16T01:59:34;2.45;;;0.50;;
50851;SDS011;43953;45.508;-122.806;2024-02-16T02:00:07;2.47;;;0.60;;
50851;SDS011;43953;45.508;-122.806;2024-02-16T02:00:40;3.08;;;0.32;;
50851;SDS011;43953;45.508;-122.806;2024-02-16T02:01:14;2.90;;;0.47;;
50851;SDS011;43953;45.508;-122.806;2024-02-16T02:01:46;2.40;;;0.40;;
50851;SDS011;43953;45.508;-122.806;2024-02-16T02:02:18;6.22;;;0.65;;
50851;SDS011;43953;45.508;-122.806;2024-02-16T02:02:50;2.08;;;0.50;;
50851;SDS011;43953;45.508;-122.806;2024-02-16T02:03:22;1.52;;;0.40;;
50851;SDS011;43953;45.508;-122.806;2024-02-16T02:03:53;2.28;;;0.55;;
50851;SDS011;43953;45.508;-122.806;2024-02-16T02:04:26;1.60;;;0.60;;
50851;SDS011;43953;45.508;-122.806;2024-02-16T02:04:58;3.15;;;0.73;;
50851;SDS011;43953;45.508;-122.806;2024-02-16T02:05:31;1.42;;;0.50;;
50851;SDS011;43953;45.508;-122.806;2024-02-16T02:06:03;3.67;;;0.60;;
50851;SDS011;43953;45.508;-122.806;2024-02-16T02:06:35;2.42;;;0.45;;
50851;SDS011;43953;45.508;-122.806;2024-02-16T02:07:12;2.53;;;0.55;;
50851;SDS011;43953;45.508;-122.806;2024-02-16T02:07:45;5.38;;;0.82;;
50851;SDS011;43953;45.508;-122.806;2024-02-16T02:08:17;3.13;;;0.60;;
50851;SDS011;43953;45.508;-122.806;2024-02-16T02:08:49;3.25;;;0.47;;
50851;SDS011;43953;45.508;-122.806;2024-02-16T02:09:20;2.28;;;0.60;;
50851;SDS011;43953;45.508;-122.806;2024-02-16T02:09:52;3.70;;;0.73;;
50851;SDS011;43953;45.508;-122.806;2024-02-16T02:10:24;6.13;;;0.60;;
50851;SDS011;43953;45.508;-122.806;2024-02-16T02:10:56;2.80;;;0.60;;
50851;SDS011;43953;45.508;-122.806;2024-02-16T02:11:28;4.25;;;0.70;;
50851;SDS011;43953;45.508;-122.806;2024-02-16T02:11:59;6.80;;;0.75;;
50851;SDS011;43953;45.508;-122.806;2024-02-16T02:12:31;2.03;;;0.30;;
50851;SDS011;43953;45.508;-122.806;2024-02-16T02:13:03;2.38;;;0.73;;
50851;SDS011;43953;45.508;-122.806;2024-02-16T02:13:35;2.72;;;0.40;;
50851;SDS011;43953;45.508;-122.806;2024-02-16T02:14:07;2.85;;;0.50;;
50851;SDS011;43953;45.508;-122.806;2024-02-16T02:14:39;3.33;;;0.60;;
50851;SDS011;43953;45.508;-122.806;2024-02-16T02:15:12;3.45;;;0.63;;
50851;SDS011;43953;45.508;-122.806;2024-02-16T02:15:44;3.30;;;0.90;;
50851;SDS011;43953;45.508;-122.806;2024-02-16T02:16:16;4.15;;;0.60;;
50851;SDS011;43953;45.508;-122.806;2024-02-16T02:16:50;4.00;;;0.80;;
50851;SDS011;43953;45.508;-122.806;2024-02-16T02:17:22;3.17;;;0.60;;
50851;SDS011;43953;45.508;-122.806;2024-02-16T02:17:54;4.40;;;0.95;;
50851;SDS011;43953;45.508;-122.806;2024-02-16T02:18:26;4.88;;;0.80;;
50851;SDS011;43953;45.508;-122.806;2024-02-16T02:18:57;2.42;;;0.60;;
50851;SDS011;43953;45.508;-122.806;2024-02-16T02:19:29;5.20;;;0.77;;
50851;SDS011;43953;45.508;-122.806;2024-02-16T02:20:01;3.33;;;0.90;;
50851;SDS011;43953;45.508;-122.806;2024-02-16T02:20:34;5.40;;;1.17;;
50851;SDS011;43953;45.508;-122.806;2024-02-16T02:21:15;3.95;;;1.00;;
50851;SDS011;43953;45.508;-122.806;2024-02-16T02:21:48;2.65;;;1.40;;
50851;SDS011;43953;45.508;-122.806;2024-02-16T02:22:21;3.33;;;1.20;;
50851;SDS011;43953;45.508;-122.806;2024-02-16T02:22:53;3.75;;;1.33;;
50851;SDS011;43953;45.508;-122.806;2024-02-16T02:23:24;7.40;;;1.58;;
50851;SDS011;43953;45.508;-122.806;2024-02-16T02:23:56;4.03;;;0.95;;
50851;SDS011;43953;45.508;-122.806;2024-02-16T02:24:28;4.13;;;1.00;;
50851;SDS011;43953;45.508;-122.806;2024-02-16T02:24:59;4.32;;;1.02;;
50851;SDS011;43953;45.508;-122.806;2024-02-16T02:25:31;5.43;;;1.48;;
50851;SDS011;43953;45.508;-122.806;2024-02-16T02:26:03;3.55;;;1.20;;
50851;SDS011;43953;45.508;-122.806;2024-02-16T02:26:35;3.22;;;1.10;;
50851;SDS011;43953;45.508;-122.806;2024-02-16T02:27:06;4.57;;;1.30;;
50851;SDS011;43953;45.508;-122.806;2024-02-16T02:27:38;4.35;;;1.20;;
50851;SDS011;43953;45.508;-122.806;2024-02-16T02:28:10;4.28;;;1.10;;
50851;SDS011;43953;45.508;-122.806;2024-02-16T02:28:42;3.15;;;1.00;;
50851;SDS011;43953;45.508;-122.806;2024-02-16T02:29:17;3.80;;;1.00;;
50851;SDS011;43953;45.508;-122.806;2024-02-16T02:29:48;4.25;;;1.25;;
50851;SDS011;43953;45.508;-122.806;2024-02-16T02:30:20;1.52;;;0.93;;
50851;SDS011;43953;45.508;-122.806;2024-02-16T02:30:52;4.18;;;0.80;;
50851;SDS011;43953;45.508;-122.806;2024-02-16T02:31:24;6.13;;;1.10;;
50851;SDS011;43953;45.508;-122.806;2024-02-16T02:31:56;3.83;;;0.85;;
50851;SDS011;43953;45.508;-122.806;2024-02-16T02:32:28;3.10;;;0.90;;
50851;SDS011;43953;45.508;-122.806;2024-02-16T02:33:00;3.25;;;1.10;;
50851;SDS011;43953;45.508;-122.806;2024-02-16T02:33:32;1.33;;;0.80;;
50851;SDS011;43953;45.508;-122.806;2024-02-16T02:34:03;4.10;;;1.20;;
50851;SDS011;43953;45.508;-122.806;2024-02-16T02:34:36;4.32;;;1.08;;
50851;SDS011;43953;45.508;-122.806;2024-02-16T02:35:08;3.60;;;1.33;;
50851;SDS011;43953;45.508;-122.806;2024-02-16T02:35:40;1.98;;;1.17;;
50851;SDS011;43953;45.508;-122.806;2024-02-16T02:36:11;4.20;;;1.58;;
50851;SDS011;43953;45.508;-122.806;2024-02-16T02:36:43;6.07;;;1.05;;
50851;SDS011;43953;45.508;-122.806;2024-02-16T02:37:15;3.15;;;1.60;;
50851;SDS011;43953;45.508;-122.806;2024-02-16T02:37:47;4.63;;;1.92;;
50851;SDS011;43953;45.508;-122.806;2024-02-16T02:38:18;7.05;;;1.40;;
50851;SDS011;43953;45.508;-122.806;2024-02-16T02:38:50;3.65;;;0.98;;
50851;SDS011;43953;45.508;-122.806;2024-02-16T02:39:22;4.30;;;1.33;;
50851;SDS011;43953;45.508;-122.806;2024-02-16T02:39:53;5.53;;;1.25;;
50851;SDS011;43953;45.508;-122.806;2024-02-16T02:40:25;2.08;;;0.95;;
50851;SDS011;43953;45.508;-122.806;2024-02-16T02:40:57;4.00;;;1.08;;
50851;SDS011;43953;45.508;-122.806;2024-02-16T02:41:29;4.55;;;1.20;;
50851;SDS011;43953;45.508;-122.806;2024-02-16T02:42:01;3.03;;;1.10;;
50851;SDS011;43953;45.508;-122.806;2024-02-16T02:42:34;5.05;;;1.38;;
50851;SDS011;43953;45.508;-122.806;2024-02-16T02:43:06;4.43;;;1.70;;
50851;SDS011;43953;45.508;-122.806;2024-02-16T02:43:38;4.05;;;1.70;;
50851;SDS011;43953;45.508;-122.806;2024-02-16T02:44:10;2.35;;;1.67;;
50851;SDS011;43953;45.508;-122.806;2024-02-16T02:44:42;3.55;;;1.52;;
50851;SDS011;43953;45.508;-122.806;2024-02-16T02:45:20;3.60;;;1.52;;
50851;SDS011;43953;45.508;-122.806;2024-02-16T02:45:52;5.85;;;1.42;;
50851;SDS011;43953;45.508;-122.806;2024-02-16T02:46:24;5.97;;;2.03;;
50851;SDS011;43953;45.508;-122.806;2024-02-16T02:46:55;2.83;;;1.73;;
50851;SDS011;43953;45.508;-122.806;2024-02-16T02:47:27;3.17;;;1.63;;
50851;SDS011;43953;45.508;-122.806;2024-02-16T02:47:59;4.35;;;2.25;;
50851;SDS011;43953;45.508;-122.806;2024-02-16T02:48:31;4.95;;;1.92;;
50851;SDS011;43953;45.508;-122.806;2024-02-16T02:49:03;8.15;;;2.13;;
50851;SDS011;43953;45.508;-122.806;2024-02-16T02:49:35;4.20;;;2.22;;
50851;SDS011;43953;45.508;-122.806;2024-02-16T02:50:06;5.78;;;2.35;;
50851;SDS011;43953;45.508;-122.806;2024-02-16T02:50:38;3.60;;;2.50;;
50851;SDS011;43953;45.508;-122.806;2024-02-16T02:51:10;6.95;;;1.85;;
50851;SDS011;43953;45.508;-122.806;2024-02-16T02:51:42;4.43;;;2.47;;
50851;SDS011;43953;45.508;-122.806;2024-02-16T02:52:14;2.75;;;2.00;;
50851;SDS011;43953;45.508;-122.806;2024-02-16T02:52:45;3.17;;;2.17;;
50851;SDS011;43953;45.508;-122.806;2024-02-16T02:53:17;6.35;;;2.40;;
50851;SDS011;43953;45.508;-122.806;2024-02-16T02:53:49;6.40;;;2.83;;
50851;SDS011;43953;45.508;-122.806;2024-02-16T02:54:21;4.80;;;2.90;;
50851;SDS011;43953;45.508;-122.806;2024-02-16T02:54:53;5.28;;;2.55;;
50851;SDS011;43953;45.508;-122.806;2024-02-16T02:55:24;4.05;;;2.30;;
50851;SDS011;43953;45.508;-122.806;2024-02-16T02:55:56;5.45;;;2.75;;
50851;SDS011;43953;45.508;-122.806;2024-02-16T02:56:28;5.72;;;2.83;;
50851;SDS011;43953;45.508;-122.806;2024-02-16T02:57:00;2.97;;;2.40;;
50851;SDS011;43953;45.508;-122.806;2024-02-16T02:57:33;5.45;;;2.40;;
50851;SDS011;43953;45.508;-122.806;2024-02-16T02:58:04;4.78;;;2.28;;
50851;SDS011;43953;45.508;-122.806;2024-02-16T02:58:38;5.55;;;2.70;;
50851;SDS011;43953;45.508;-122.806;2024-02-16T02:59:10;5.15;;;3.08;;
50851;SDS011;43953;45.508;-122.806;2024-02-16T02:59:42;4.90;;;2.75;;
50851;SDS011;43953;45.508;-122.806;2024-02-16T03:00:14;4.80;;;2.67;;
50851;SDS011;43953;45.508;-122.806;2024-02-16T03:00:46;6.63;;;3.33;;
50851;SDS011;43953;45.508;-122.806;2024-02-16T03:01:17;5.30;;;2.83;;
50851;SDS011;43953;45.508;-122.806;2024-02-16T03:01:51;3.22;;;2.80;;
50851;SDS011;43953;45.508;-122.806;2024-02-16T03:02:23;4.68;;;2.90;;
50851;SDS011;43953;45.508;-122.806;2024-02-16T03:02:54;3.88;;;2.88;;
50851;SDS011;43953;45.508;-122.806;2024-02-16T03:03:26;3.33;;;2.78;;
50851;SDS011;43953;45.508;-122.806;2024-02-16T03:03:58;4.20;;;2.53;;
50851;SDS011;43953;45.508;-122.806;2024-02-16T03:04:30;3.67;;;2.50;;
50851;SDS011;43953;45.508;-122.806;2024-02-16T03:05:02;4.93;;;2.47;;